Time;durP1;ratioP1;P1;durP2;ratioP2;P2;SDS_P1;SDS_P2;PMS_P1;PMS_P2;Temp;Humidity;BMP_temperature;BMP_pressure;BME280_temperature;BME280_humidity;BME280_pressure;Samples;Min_cycle;Max_cycle;Signal;HPM_P1;HPM_P2
2022/03/04 00:00:39;;;;;;;7.53;6.38;;;14.70;37.70;;;;;;5149175;27;47924;-19
2022/03/04 00:03:06;;;;;;;7.97;6.65;;;14.60;37.60;;;;;;5149297;27;46896;-19
2022/03/04 00:05:33;;;;;;;8.75;7.32;;;14.60;37.70;;;;;;5149297;27;47051;-19
2022/03/04 00:08:01;;;;;;;8.38;6.82;;;14.60;37.60;;;;;;5149618;27;46913;-20
2022/03/04 00:10:27;;;;;;;7.60;6.70;;;14.60;37.60;;;;;;5148881;27;47915;-19
2022/03/04 00:12:54;;;;;;;8.57;6.90;;;14.60;37.70;;;;;;5149246;27;46922;-19
2022/03/04 00:15:21;;;;;;;9.07;6.80;;;14.60;37.70;;;;;;5149143;27;46812;-19
2022/03/04 00:17:48;;;;;;;7.78;6.55;;;14.60;37.70;;;;;;5149203;27;47004;-19
2022/03/04 00:20:15;;;;;;;9.32;7.15;;;14.50;37.70;;;;;;5148906;27;48196;-19
2022/03/04 00:22:42;;;;;;;10.48;6.75;;;14.50;37.60;;;;;;5148999;27;47061;-19
2022/03/04 00:25:10;;;;;;;8.77;6.97;;;14.50;37.70;;;;;;5148812;27;46829;-19
2022/03/04 00:27:37;;;;;;;9.82;7.07;;;14.50;37.70;;;;;;5148982;27;46898;-19
2022/03/04 00:30:04;;;;;;;8.00;6.93;;;14.50;37.70;;;;;;5148555;27;48747;-19
2022/03/04 00:32:31;;;;;;;9.00;7.28;;;14.40;37.60;;;;;;5148956;27;47114;-19
2022/03/04 00:34:57;;;;;;;9.20;6.85;;;14.40;37.60;;;;;;5148529;27;46960;-19
2022/03/04 00:37:24;;;;;;;10.07;7.15;;;14.40;37.60;;;;;;5148877;27;46939;-19
2022/03/04 00:39:51;;;;;;;9.98;7.13;;;14.40;37.60;;;;;;5148365;27;48111;-19
2022/03/04 00:42:19;;;;;;;7.95;6.75;;;14.40;37.60;;;;;;5148734;27;47045;-19
2022/03/04 00:44:46;;;;;;;8.88;7.32;;;14.40;37.60;;;;;;5148166;27;46895;-19
2022/03/04 00:47:12;;;;;;;9.45;7.22;;;14.30;37.60;;;;;;5148903;27;46902;-20
2022/03/04 00:49:39;;;;;;;10.18;7.38;;;14.30;37.60;;;;;;5148144;27;48093;-19
2022/03/04 00:52:06;;;;;;;9.73;6.90;;;14.30;37.60;;;;;;5148603;27;46849;-19
2022/03/04 00:54:33;;;;;;;8.85;6.95;;;14.30;37.70;;;;;;5148321;27;46915;-19
2022/03/04 00:57:00;;;;;;;10.15;7.05;;;14.30;37.70;;;;;;5148445;27;46898;-19
2022/03/04 00:59:28;;;;;;;8.27;6.72;;;14.20;37.60;;;;;;5147997;27;49041;-19
2022/03/04 01:01:54;;;;;;;9.00;7.20;;;14.20;37.60;;;;;;5148368;27;46912;-15
2022/03/04 01:04:21;;;;;;;8.23;7.07;;;14.20;37.60;;;;;;5148395;27;47013;-14
2022/03/04 01:06:48;;;;;;;9.25;7.07;;;14.20;37.60;;;;;;5148294;27;46962;-14
2022/03/04 01:09:15;;;;;;;10.40;7.00;;;14.20;37.60;;;;;;5147795;27;48045;-14
2022/03/04 01:11:41;;;;;;;12.43;7.25;;;14.20;37.60;;;;;;5148343;27;47008;-14
2022/03/04 01:14:08;;;;;;;11.18;8.10;;;14.10;37.50;;;;;;5148240;27;47008;-14
2022/03/04 01:16:36;;;;;;;11.25;7.60;;;14.10;37.50;;;;;;5148361;27;46969;-15
2022/03/04 01:19:04;;;;;;;9.27;7.57;;;14.10;37.60;;;;;;5147675;27;46918;-14
2022/03/04 01:21:31;;;;;;;9.07;7.38;;;14.10;37.60;;;;;;5148216;27;46958;-15
2022/03/04 01:23:58;;;;;;;9.52;7.38;;;14.10;37.60;;;;;;5147728;27;46963;-14
2022/03/04 01:26:24;;;;;;;9.02;7.60;;;14.10;38.20;;;;;;5148332;27;46902;-19
2022/03/04 01:28:51;;;;;;;10.00;7.78;;;14.00;37.60;;;;;;5147569;27;47402;-19
2022/03/04 01:31:18;;;;;;;9.80;7.40;;;14.00;37.60;;;;;;5148048;27;46888;-18
2022/03/04 01:33:46;;;;;;;10.38;7.47;;;14.00;37.60;;;;;;5147925;27;46742;-18
2022/03/04 01:36:13;;;;;;;9.10;7.50;;;14.00;37.60;;;;;;5147886;27;46859;-19
2022/03/04 01:38:39;;;;;;;7.97;6.95;;;14.00;37.60;;;;;;5147621;27;47954;-15
2022/03/04 01:41:06;;;;;;;9.00;7.50;;;14.00;37.60;;;;;;5147568;27;47322;-14
2022/03/04 01:43:35;;;;;;;9.30;7.72;;;14.00;37.60;;;;;;5148032;27;46758;-14
2022/03/04 01:46:12;;;;;;;10.40;7.50;;;14.10;37.50;;;;;;5147942;27;47294;-14
2022/03/04 01:48:39;;;;;;;9.65;7.53;;;14.20;37.30;;;;;;5147411;27;48851;-14
2022/03/04 01:51:08;;;;;;;8.88;7.20;;;14.30;37.10;;;;;;5147375;27;46993;-14
2022/03/04 01:53:34;;;;;;;9.38;7.47;;;14.50;36.90;;;;;;5147752;27;46939;-14
2022/03/04 01:56:01;;;;;;;8.00;7.15;;;14.50;36.50;;;;;;5147836;27;47418;-14
2022/03/04 01:58:28;;;;;;;9.90;8.02;;;14.60;36.40;;;;;;5147693;27;47945;-14
2022/03/04 02:00:54;;;;;;;9.82;7.85;;;14.70;36.30;;;;;;5147350;27;47254;-14
2022/03/04 02:03:21;;;;;;;10.63;6.70;;;14.70;36.20;;;;;;5147672;27;46905;-14
2022/03/04 02:05:48;;;;;;;9.45;7.80;;;14.80;36.10;;;;;;5147241;27;46787;-14
2022/03/04 02:08:16;;;;;;;9.60;7.43;;;14.80;36.60;;;;;;5147308;27;47983;-15
2022/03/04 02:10:43;;;;;;;8.60;7.65;;;14.80;35.90;;;;;;5147374;27;47440;-14
2022/03/04 02:13:09;;;;;;;11.07;7.88;;;14.80;35.90;;;;;;5147208;27;47112;-15
2022/03/04 02:15:36;;;;;;;10.20;8.48;;;14.80;35.90;;;;;;5146105;27;46852;-14
2022/03/04 02:18:10;;;;;;;8.88;7.50;;;14.80;35.80;;;;;;5148112;27;49005;-14
2022/03/04 02:20:37;;;;;;;9.93;8.23;;;14.80;35.80;;;;;;5149345;27;46920;-14
2022/03/04 02:23:05;;;;;;;9.27;7.30;;;14.80;35.80;;;;;;5150298;27;46846;-15
2022/03/04 02:25:32;;;;;;;9.55;7.72;;;14.80;35.80;;;;;;5150884;27;46909;-14
2022/03/04 02:27:59;;;;;;;11.25;8.43;;;14.80;35.80;;;;;;5150846;27;49065;-15
2022/03/04 02:30:25;;;;;;;10.25;8.15;;;14.70;35.80;;;;;;5150324;27;46851;-15
2022/03/04 02:32:52;;;;;;;8.68;7.57;;;14.70;35.80;;;;;;5151239;27;46937;-15
2022/03/04 02:35:19;;;;;;;8.50;7.45;;;14.70;35.90;;;;;;5150633;27;46871;-14
2022/03/04 02:37:46;;;;;;;8.93;7.45;;;14.70;35.90;;;;;;5150766;27;47265;-14
2022/03/04 02:40:15;;;;;;;7.97;7.07;;;14.70;35.90;;;;;;5150602;27;46978;-14
2022/03/04 02:42:41;;;;;;;9.57;7.63;;;14.60;35.80;;;;;;5150876;27;46830;-14
2022/03/04 02:45:09;;;;;;;9.55;7.88;;;14.60;35.90;;;;;;5150626;27;47170;-14
2022/03/04 02:47:35;;;;;;;9.05;7.43;;;14.60;35.90;;;;;;5150561;27;48032;-15
2022/03/04 02:50:02;;;;;;;10.90;7.75;;;14.60;36.00;;;;;;5150498;27;47121;-14
2022/03/04 02:52:29;;;;;;;9.80;7.20;;;14.50;35.90;;;;;;5150314;27;46916;-14
2022/03/04 02:54:56;;;;;;;8.18;7.07;;;14.50;36.00;;;;;;5150146;27;47218;-15
2022/03/04 02:57:24;;;;;;;9.73;7.65;;;14.50;36.00;;;;;;5150528;27;48109;-14
2022/03/04 02:59:50;;;;;;;9.30;7.25;;;14.50;36.00;;;;;;5150222;27;46906;-14
2022/03/04 03:02:17;;;;;;;9.55;7.65;;;14.40;36.00;;;;;;5150148;27;46821;-14
2022/03/04 03:04:44;;;;;;;10.23;7.93;;;14.40;36.00;;;;;;5150206;27;47105;-19
2022/03/04 03:07:10;;;;;;;10.55;7.32;;;14.40;36.10;;;;;;5150269;27;46958;-19
2022/03/04 03:09:37;;;;;;;9.77;7.63;;;14.40;36.10;;;;;;5149627;27;46800;-19
2022/03/04 03:12:04;;;;;;;10.75;8.35;;;14.30;36.10;;;;;;5149235;27;46896;-19
2022/03/04 03:14:33;;;;;;;9.48;7.60;;;14.30;36.10;;;;;;5149205;27;47042;-19
2022/03/04 03:16:59;;;;;;;10.27;8.32;;;14.30;36.20;;;;;;5149273;27;48136;-19
2022/03/04 03:19:26;;;;;;;10.30;7.70;;;14.20;36.20;;;;;;5149023;27;46940;-19
2022/03/04 03:21:53;;;;;;;9.25;7.95;;;14.20;36.20;;;;;;5148841;27;46894;-19
2022/03/04 03:24:19;;;;;;;10.15;7.88;;;14.20;36.20;;;;;;5148796;27;46995;-19
2022/03/04 03:26:46;;;;;;;9.65;8.15;;;14.20;36.20;;;;;;5148971;27;48253;-19
2022/03/04 03:29:13;;;;;;;10.90;7.85;;;14.20;36.30;;;;;;5148028;27;46953;-19
2022/03/04 03:31:41;;;;;;;10.00;7.95;;;14.20;36.30;;;;;;5148604;27;46861;-19
2022/03/04 03:34:07;;;;;;;9.35;8.05;;;14.10;36.20;;;;;;5148616;27;46836;-19
2022/03/04 03:36:34;;;;;;;9.32;7.57;;;14.10;36.20;;;;;;5148411;27;48147;-19
2022/03/04 03:39:01;;;;;;;9.52;7.78;;;14.10;36.30;;;;;;5147999;27;47205;-19
2022/03/04 03:41:28;;;;;;;9.85;7.75;;;14.10;36.30;;;;;;5148754;27;47020;-19
2022/03/04 03:43:54;;;;;;;9.63;8.25;;;14.10;36.30;;;;;;5148496;27;46949;-19
2022/03/04 03:46:21;;;;;;;9.75;7.55;;;14.00;36.30;;;;;;5148816;27;48040;-18
2022/03/04 03:48:50;;;;;;;9.00;7.90;;;14.00;36.40;;;;;;5148346;27;46832;-18
2022/03/04 03:51:16;;;;;;;11.38;7.72;;;14.00;36.40;;;;;;5148578;27;47029;-19
2022/03/04 03:53:43;;;;;;;8.93;8.00;;;14.00;36.40;;;;;;5148233;27;46865;-18
2022/03/04 03:56:10;;;;;;;10.77;8.05;;;14.00;36.40;;;;;;5148128;27;48070;-19
2022/03/04 03:58:36;;;;;;;10.93;8.18;;;13.90;36.40;;;;;;5148007;27;46856;-18
2022/03/04 04:01:03;;;;;;;8.55;7.65;;;13.90;36.40;;;;;;5148252;27;46815;-19
2022/03/04 04:03:30;;;;;;;8.80;7.47;;;13.90;36.40;;;;;;5148096;27;47278;-18
2022/03/04 04:05:58;;;;;;;9.38;7.68;;;13.80;36.40;;;;;;5147966;27;47080;-18
2022/03/04 04:08:25;;;;;;;9.02;7.45;;;13.80;36.50;;;;;;5148043;27;47419;-18
2022/03/04 04:10:51;;;;;;;9.80;8.13;;;13.80;36.50;;;;;;5109672;27;1096335;-19
2022/03/04 04:13:18;;;;;;;8.80;7.60;;;13.80;36.50;;;;;;5149163;27;47066;-19
2022/03/04 04:15:45;;;;;;;10.98;8.02;;;13.80;36.50;;;;;;5148991;27;48111;-19
2022/03/04 04:18:11;;;;;;;9.95;7.82;;;13.70;36.50;;;;;;5149364;27;47234;-18
2022/03/04 04:20:38;;;;;;;12.63;8.82;;;13.70;36.50;;;;;;5148682;27;46849;-19
2022/03/04 04:23:06;;;;;;;11.10;7.90;;;13.70;36.50;;;;;;5149076;27;46904;-19
2022/03/04 04:25:33;;;;;;;10.00;7.82;;;13.60;36.60;;;;;;5148809;27;47835;-19
2022/03/04 04:27:59;;;;;;;8.50;7.28;;;13.60;36.60;;;;;;5149012;27;46787;-19
2022/03/04 04:30:26;;;;;;;9.68;7.45;;;13.60;36.60;;;;;;5148394;27;46921;-19
2022/03/04 04:32:53;;;;;;;9.93;7.93;;;13.70;36.50;;;;;;5149352;27;46894;-19
2022/03/04 04:35:20;;;;;;;10.73;7.95;;;13.80;36.30;;;;;;5148592;27;48679;-18
2022/03/04 04:37:46;;;;;;;9.25;8.05;;;13.90;36.00;;;;;;5148642;27;47498;-19
2022/03/04 04:40:15;;;;;;;10.65;8.50;;;14.10;35.80;;;;;;5147397;27;46974;-19
2022/03/04 04:42:41;;;;;;;10.17;7.80;;;14.20;35.60;;;;;;5149073;27;47251;-19
2022/03/04 04:45:09;;;;;;;8.80;7.45;;;14.30;35.40;;;;;;5148513;27;46940;-19
2022/03/04 04:47:36;;;;;;;10.07;7.63;;;14.30;35.30;;;;;;5148648;27;47433;-19
2022/03/04 04:50:03;;;;;;;10.07;8.02;;;14.40;35.20;;;;;;5148609;27;46895;-19
2022/03/04 04:52:29;;;;;;;10.07;7.50;;;14.40;35.00;;;;;;5148901;27;47276;-19
2022/03/04 04:54:56;;;;;;;9.00;7.60;;;14.40;34.90;;;;;;5148171;27;47948;-18
2022/03/04 04:57:24;;;;;;;11.55;8.23;;;14.40;34.90;;;;;;5148580;27;46973;-18
2022/03/04 04:59:51;;;;;;;8.73;7.80;;;14.50;35.00;;;;;;5148244;27;46923;-20
2022/03/04 05:02:17;;;;;;;10.18;7.85;;;14.40;34.90;;;;;;5148682;27;47101;-20
2022/03/04 05:04:44;;;;;;;9.18;7.93;;;14.40;34.90;;;;;;5148039;27;47124;-20
2022/03/04 05:07:11;;;;;;;10.30;8.25;;;14.40;34.90;;;;;;5148456;27;47440;-19
2022/03/04 05:09:38;;;;;;;8.68;7.72;;;14.40;34.90;;;;;;5148087;27;46790;-19
2022/03/04 05:12:05;;;;;;;9.02;7.78;;;14.40;34.90;;;;;;5148532;27;47192;-15
2022/03/04 05:14:33;;;;;;;9.75;7.90;;;14.40;34.90;;;;;;5147963;27;47852;-14
2022/03/04 05:17:00;;;;;;;9.32;8.10;;;14.40;34.90;;;;;;5148071;27;46745;-14
2022/03/04 05:19:27;;;;;;;10.85;8.18;;;14.40;34.90;;;;;;5147864;27;46813;-14
2022/03/04 05:21:53;;;;;;;9.77;8.00;;;14.40;35.00;;;;;;5148325;27;47292;-15
2022/03/04 05:24:20;;;;;;;9.90;7.57;;;14.40;35.00;;;;;;5147855;27;48106;-15
2022/03/04 05:26:47;;;;;;;8.68;7.50;;;14.30;35.00;;;;;;5147760;27;46874;-15
2022/03/04 05:29:13;;;;;;;10.93;8.07;;;14.30;35.00;;;;;;5147654;27;46841;-14
2022/03/04 05:31:42;;;;;;;10.33;7.80;;;14.30;35.00;;;;;;5148314;27;46929;-15
2022/03/04 05:34:10;;;;;;;9.93;7.13;;;14.30;35.10;;;;;;5147642;27;48089;-14
2022/03/04 05:36:37;;;;;;;9.18;8.23;;;14.30;35.10;;;;;;5147790;27;46991;-15
2022/03/04 05:39:04;;;;;;;8.90;7.53;;;14.20;35.10;;;;;;5147402;27;46817;-15
2022/03/04 05:41:30;;;;;;;9.45;7.72;;;14.20;35.10;;;;;;5148254;27;46903;-14
2022/03/04 05:43:57;;;;;;;10.10;7.53;;;14.20;35.20;;;;;;5147392;27;46967;-19
2022/03/04 05:46:24;;;;;;;10.38;8.35;;;14.20;35.20;;;;;;5147855;27;46958;-19
2022/03/04 05:48:52;;;;;;;8.87;7.37;;;14.10;35.20;;;;;;5147496;27;46937;-19
2022/03/04 05:51:18;;;;;;;8.93;7.47;;;14.10;35.30;;;;;;5147504;27;46911;-19
2022/03/04 05:53:45;;;;;;;10.27;7.50;;;14.10;35.30;;;;;;5147549;27;48850;-20
2022/03/04 05:56:12;;;;;;;9.70;7.30;;;14.00;35.30;;;;;;5147735;27;46806;-19
2022/03/04 05:58:39;;;;;;;9.77;7.90;;;14.00;35.40;;;;;;5147446;27;46902;-19
2022/03/04 06:01:07;;;;;;;9.68;8.35;;;14.00;35.40;;;;;;5147657;27;47234;-19
2022/03/04 06:03:34;;;;;;;8.47;7.30;;;14.00;35.50;;;;;;5147386;27;47133;-20
2022/03/04 06:06:02;;;;;;;9.17;8.17;;;13.90;35.50;;;;;;5147283;27;47155;-20
2022/03/04 06:08:29;;;;;;;9.30;7.47;;;13.90;35.50;;;;;;5147692;27;46915;-20
2022/03/04 06:10:56;;;;;;;9.45;7.60;;;13.90;35.60;;;;;;5147260;27;47283;-20
2022/03/04 06:13:22;;;;;;;9.30;7.60;;;13.80;35.50;;;;;;5146841;27;49154;-20
2022/03/04 06:15:49;;;;;;;12.23;8.48;;;13.80;35.60;;;;;;5145963;27;46945;-20
2022/03/04 06:18:16;;;;;;;9.20;7.68;;;13.80;35.60;;;;;;5147325;27;46794;-16
2022/03/04 06:20:43;;;;;;;8.95;7.47;;;13.70;35.60;;;;;;5147428;27;47288;-15
2022/03/04 06:23:13;;;;;;;8.63;7.65;;;13.70;35.60;;;;;;5147284;27;47970;-15
2022/03/04 06:25:39;;;;;;;8.52;7.45;;;13.70;35.70;;;;;;5147039;27;46806;-14
2022/03/04 06:28:06;;;;;;;9.35;7.88;;;13.70;35.70;;;;;;5147039;27;46749;-16
2022/03/04 06:30:36;;;;;;;9.80;7.73;;;13.60;35.70;;;;;;5147301;27;46870;-15
2022/03/04 06:35:47;;;;;;;9.98;8.10;;;13.60;35.80;;;;;;5147172;27;46884;-20
2022/03/04 06:38:15;;;;;;;9.45;7.10;;;13.50;35.80;;;;;;5146752;27;47070;-20
2022/03/04 06:40:42;;;;;;;9.97;7.97;;;13.50;35.80;;;;;;5146956;27;47102;-19
2022/03/04 06:43:09;;;;;;;9.67;7.33;;;13.50;35.90;;;;;;5146939;27;46913;-20
2022/03/04 06:45:36;;;;;;;8.13;7.27;;;13.60;35.90;;;;;;5146806;27;47424;-15
2022/03/04 06:48:03;;;;;;;11.40;8.10;;;13.70;35.70;;;;;;5146982;27;47004;-15
2022/03/04 06:50:29;;;;;;;8.93;7.53;;;13.80;35.50;;;;;;5146736;27;46995;-20
2022/03/04 06:52:56;;;;;;;9.43;7.53;;;13.90;35.40;;;;;;5141457;27;47097;-20
2022/03/04 06:55:25;;;;;;;8.67;7.33;;;14.00;35.10;;;;;;5146083;27;47099;-20
2022/03/04 06:57:54;;;;;;;17.73;7.95;;;14.10;35.20;;;;;;5145034;27;47094;-19
2022/03/04 07:00:20;;;;;;;11.93;8.00;;;14.20;36.00;;;;;;5160397;27;47142;-19
2022/03/04 07:02:48;;;;;;;9.18;8.02;;;14.30;35.80;;;;;;5154494;27;48997;-20
2022/03/04 07:05:15;;;;;;;11.45;7.95;;;14.40;35.20;;;;;;5150027;27;47098;-21
2022/03/04 07:07:42;;;;;;;13.52;7.93;;;14.50;35.10;;;;;;5150468;27;46930;-15
2022/03/04 07:10:10;;;;;;;12.60;8.17;;;14.50;34.80;;;;;;5128405;27;47693;-14
2022/03/04 07:12:38;;;;;;;10.23;7.93;;;14.50;35.50;;;;;;5135135;27;49082;-14
2022/03/04 07:15:05;;;;;;;15.45;8.07;;;14.60;35.20;;;;;;5132795;27;47243;-14
2022/03/04 07:17:32;;;;;;;15.32;8.13;;;14.60;34.90;;;;;;5129265;27;47205;-21
2022/03/04 07:19:59;;;;;;;13.27;7.97;;;14.60;34.70;;;;;;5127354;27;46973;-20
2022/03/04 07:22:26;;;;;;;9.45;7.93;;;14.70;35.00;;;;;;5142130;27;48183;-20
2022/03/04 07:24:52;;;;;;;10.38;8.25;;;14.80;34.80;;;;;;5128208;27;46758;-21
2022/03/04 07:27:19;;;;;;;10.95;8.07;;;14.80;35.50;;;;;;5127726;27;46901;-20
2022/03/04 07:29:47;;;;;;;10.93;8.27;;;14.80;35.90;;;;;;5128499;27;46991;-19
2022/03/04 07:32:14;;;;;;;10.73;7.47;;;14.80;35.10;;;;;;5140026;27;48491;-20
2022/03/04 07:34:40;;;;;;;9.40;7.68;;;14.80;35.10;;;;;;5128690;27;47093;-20
2022/03/04 07:37:07;;;;;;;14.77;8.68;;;14.80;35.10;;;;;;5128336;27;47002;-20
2022/03/04 07:39:34;;;;;;;10.75;7.47;;;14.80;35.20;;;;;;5128104;27;46865;-20
2022/03/04 07:42:01;;;;;;;8.80;6.95;;;14.80;35.10;;;;;;5149211;27;48767;-20
2022/03/04 07:44:28;;;;;;;13.40;7.35;;;14.80;35.20;;;;;;5133259;27;46939;-21
2022/03/04 07:46:56;;;;;;;9.27;7.32;;;14.80;34.90;;;;;;5128403;27;47006;-22
2022/03/04 07:49:23;;;;;;;10.57;7.97;;;14.80;34.80;;;;;;5128336;27;47124;-20
2022/03/04 07:51:49;;;;;;;9.50;7.65;;;14.80;34.80;;;;;;5142769;27;47982;-20
2022/03/04 07:54:18;;;;;;;20.00;7.60;;;14.80;34.70;;;;;;5143887;27;47243;-20
2022/03/04 07:56:45;;;;;;;9.23;7.35;;;14.70;34.90;;;;;;5148528;27;47038;-20
2022/03/04 07:59:11;;;;;;;12.40;7.32;;;14.70;34.80;;;;;;5139041;27;46921;-20
2022/03/04 08:01:38;;;;;;;8.40;7.07;;;14.60;34.80;;;;;;5127368;27;48084;-20
2022/03/04 08:04:06;;;;;;;9.43;6.93;;;14.60;34.80;;;;;;5126760;27;47379;-20
2022/03/04 08:06:33;;;;;;;10.32;6.70;;;14.60;34.90;;;;;;5126975;27;46890;-20
2022/03/04 08:09:00;;;;;;;9.05;6.90;;;14.50;35.00;;;;;;5126794;27;47125;-19
2022/03/04 08:11:27;;;;;;;8.35;6.88;;;14.50;35.10;;;;;;5127224;27;48234;-20
2022/03/04 08:13:53;;;;;;;8.75;7.30;;;14.40;35.10;;;;;;5126305;27;47177;-20
2022/03/04 08:16:20;;;;;;;8.35;6.80;;;14.40;35.10;;;;;;5126316;27;46802;-20
2022/03/04 08:18:47;;;;;;;8.88;6.35;;;14.40;35.20;;;;;;5128511;27;47226;-20
2022/03/04 08:21:15;;;;;;;8.35;6.38;;;14.30;35.20;;;;;;5127965;27;47878;-20
2022/03/04 08:23:42;;;;;;;9.63;7.22;;;14.30;35.30;;;;;;5127886;27;46928;-20
2022/03/04 08:26:09;;;;;;;9.30;6.93;;;14.30;35.20;;;;;;5128076;27;46920;-20
2022/03/04 08:28:36;;;;;;;8.77;6.20;;;14.20;35.20;;;;;;5127412;27;47300;-20
2022/03/04 08:31:10;;;;;;;8.63;6.88;;;14.20;35.30;;;;;;5127754;27;46818;-20
2022/03/04 08:33:37;;;;;;;9.02;6.65;;;14.20;35.30;;;;;;5128109;27;46901;-15
2022/03/04 08:36:04;;;;;;;11.70;7.57;;;14.20;35.40;;;;;;5126954;27;46877;-14
2022/03/04 08:38:32;;;;;;;9.45;7.00;;;14.20;35.40;;;;;;5127093;27;46913;-14
2022/03/04 08:40:59;;;;;;;8.20;6.85;;;14.20;35.50;;;;;;5127534;27;46929;-14
2022/03/04 08:43:25;;;;;;;9.60;6.95;;;14.20;35.50;;;;;;5128078;27;47145;-13
2022/03/04 08:45:52;;;;;;;9.10;6.90;;;14.10;35.50;;;;;;5127571;27;47135;-14
2022/03/04 08:48:19;;;;;;;8.23;6.38;;;14.10;35.50;;;;;;5127930;27;47002;-14
2022/03/04 08:50:46;;;;;;;8.50;6.45;;;14.10;35.50;;;;;;5127604;27;49090;-14
2022/03/04 08:53:12;;;;;;;7.30;6.07;;;14.10;35.60;;;;;;5127719;27;46746;-15
2022/03/04 08:55:44;;;;;;;8.60;6.63;;;14.10;35.60;;;;;;5127467;27;46944;-15
2022/03/04 08:58:11;;;;;;;7.78;6.55;;;14.10;35.60;;;;;;5127902;27;46899;-14
2022/03/04 09:00:38;;;;;;;7.40;6.20;;;14.20;35.70;;;;;;5126175;27;47908;-14
2022/03/04 09:03:05;;;;;;;8.23;5.80;;;14.10;35.60;;;;;;5126949;27;46946;-14
2022/03/04 09:05:32;;;;;;;8.55;6.70;;;14.20;35.70;;;;;;5127393;27;47336;-14
2022/03/04 09:07:58;;;;;;;7.57;6.03;;;14.20;35.80;;;;;;5127391;27;46833;-15
2022/03/04 09:10:26;;;;;;;7.78;6.43;;;14.20;35.70;;;;;;5127508;27;49105;-14
2022/03/04 09:12:55;;;;;;;6.93;5.40;;;14.10;35.70;;;;;;5146545;27;47139;-15
2022/03/04 09:15:22;;;;;;;6.70;6.10;;;14.20;35.80;;;;;;5145625;27;47087;-14
2022/03/04 09:17:50;;;;;;;7.22;6.30;;;14.20;35.60;;;;;;5146419;27;47136;-14
2022/03/04 09:20:19;;;;;;;8.45;6.53;;;14.20;35.80;;;;;;5146153;27;47355;-13
2022/03/04 09:22:46;;;;;;;8.77;6.28;;;14.20;35.80;;;;;;5146345;27;47390;-15
2022/03/04 09:25:13;;;;;;;6.47;5.53;;;14.20;35.80;;;;;;5146017;27;47041;-15
2022/03/04 09:27:40;;;;;;;6.57;5.70;;;14.20;35.80;;;;;;5146075;27;46923;-14
2022/03/04 09:30:11;;;;;;;6.82;5.85;;;14.20;35.80;;;;;;5145974;27;47089;-14
2022/03/04 09:32:38;;;;;;;7.20;5.80;;;14.20;35.80;;;;;;5146367;27;46967;-15
2022/03/04 09:35:05;;;;;;;9.35;5.70;;;14.20;35.50;;;;;;5145875;27;46942;-15
2022/03/04 09:37:32;;;;;;;9.57;6.32;;;14.20;35.90;;;;;;5147980;27;47311;-14
2022/03/04 09:39:59;;;;;;;9.45;6.38;;;14.20;35.90;;;;;;5147216;27;48140;-14
2022/03/04 09:42:26;;;;;;;6.57;5.18;;;14.20;35.70;;;;;;5147742;27;46903;-14
2022/03/04 09:44:52;;;;;;;5.88;5.32;;;14.30;35.90;;;;;;5147775;27;47109;-14
2022/03/04 09:47:21;;;;;;;6.45;5.60;;;14.30;35.90;;;;;;5147781;27;47174;-13
2022/03/04 09:49:48;;;;;;;6.30;5.40;;;14.30;35.90;;;;;;5147777;27;47783;-14
2022/03/04 09:52:14;;;;;;;8.05;5.80;;;14.30;35.90;;;;;;5147245;27;46871;-15
2022/03/04 09:54:41;;;;;;;6.90;5.88;;;14.30;35.90;;;;;;5147631;27;46963;-15
2022/03/04 09:57:08;;;;;;;7.82;5.78;;;14.30;35.90;;;;;;5147832;27;47079;-15
2022/03/04 09:59:34;;;;;;;7.03;5.47;;;14.30;35.90;;;;;;5147366;27;47086;-14
2022/03/04 10:02:01;;;;;;;7.13;5.50;;;14.40;35.90;;;;;;5147481;27;46873;-14
2022/03/04 10:04:31;;;;;;;7.95;5.88;;;14.40;35.90;;;;;;5147453;27;46800;-14
2022/03/04 10:06:58;;;;;;;6.25;5.55;;;14.40;35.90;;;;;;5147445;27;46937;-15
2022/03/04 10:09:38;;;;;;;8.77;5.55;;;14.40;35.90;;;;;;5146838;27;49077;-14
2022/03/04 10:12:07;;;;;;;7.18;5.63;;;14.40;35.90;;;;;;5147545;27;46900;-14
2022/03/04 10:14:33;;;;;;;6.15;5.47;;;14.40;35.90;;;;;;5147643;27;46971;-14
2022/03/04 10:17:02;;;;;;;6.30;5.45;;;14.40;35.90;;;;;;5147414;27;46825;-14
2022/03/04 10:19:33;;;;;;;6.30;5.50;;;14.50;35.90;;;;;;5146933;27;48208;-15
2022/03/04 10:22:02;;;;;;;7.32;4.85;;;14.40;35.80;;;;;;5147122;27;46966;-20
2022/03/04 10:24:30;;;;;;;5.90;4.93;;;14.50;35.90;;;;;;5146614;27;46845;-20
2022/03/04 10:27:01;;;;;;;5.50;5.00;;;14.50;36.00;;;;;;5145880;27;46969;-20
2022/03/04 10:29:28;;;;;;;7.10;5.40;;;14.50;36.00;;;;;;5145758;27;48040;-20
2022/03/04 10:32:12;;;;;;;6.80;5.10;;;14.50;35.90;;;;;;5146357;27;46968;-20
2022/03/04 10:34:51;;;;;;;5.68;4.75;;;14.60;36.50;;;;;;5145728;27;46968;-20
2022/03/04 10:37:19;;;;;;;6.93;5.90;;;14.60;35.90;;;;;;5145748;27;47256;-20
2022/03/04 10:40:03;;;;;;;6.07;5.07;;;14.60;35.80;;;;;;5148073;27;49129;-20
2022/03/04 10:42:45;;;;;;;6.25;4.95;;;14.60;35.80;;;;;;5147673;27;47104;-19
2022/03/04 10:45:12;;;;;;;5.78;4.20;;;14.70;35.70;;;;;;5147487;27;46935;-20
2022/03/04 10:47:44;;;;;;;5.30;4.75;;;14.70;35.80;;;;;;5149435;27;47091;-19
2022/03/04 10:50:12;;;;;;;6.15;4.70;;;14.80;35.80;;;;;;5148886;27;47243;-20
2022/03/04 10:52:48;;;;;;;6.47;4.90;;;14.80;35.70;;;;;;5148696;27;47227;-20
2022/03/04 10:55:30;;;;;;;6.53;5.20;;;14.90;36.30;;;;;;5148854;27;47164;-20
2022/03/04 10:57:57;;;;;;;4.95;4.35;;;14.90;35.60;;;;;;5148744;27;47130;-20
2022/03/04 11:00:27;;;;;;;7.50;5.18;;;15.00;35.60;;;;;;5150290;27;48218;-20
2022/03/04 11:02:54;;;;;;;5.90;5.07;;;15.00;35.50;;;;;;5150521;27;47338;-20
2022/03/04 11:05:23;;;;;;;6.93;5.45;;;15.10;35.40;;;;;;5150309;27;46920;-20
2022/03/04 11:07:50;;;;;;;6.10;4.85;;;15.10;35.40;;;;;;5150478;27;46958;-21
2022/03/04 11:10:17;;;;;;;6.60;5.22;;;15.20;35.20;;;;;;5148723;27;48410;-20
2022/03/04 11:12:45;;;;;;;6.93;5.30;;;15.20;35.30;;;;;;5149314;27;47225;-20
2022/03/04 11:15:12;;;;;;;6.65;5.13;;;15.30;35.20;;;;;;5149908;27;47026;-14
2022/03/04 11:17:39;;;;;;;5.10;4.60;;;15.40;35.00;;;;;;5149335;27;47143;-14
2022/03/04 11:20:07;;;;;;;5.93;5.30;;;15.40;34.90;;;;;;5149372;27;47922;-14
2022/03/04 11:22:35;;;;;;;5.57;4.85;;;15.50;34.80;;;;;;5150006;27;46905;-13
2022/03/04 11:25:04;;;;;;;5.50;4.93;;;15.60;34.70;;;;;;5149559;27;46850;-14
2022/03/04 11:27:30;;;;;;;6.20;4.95;;;15.60;34.60;;;;;;5149223;27;46961;-14
2022/03/04 11:29:59;;;;;;;5.10;4.60;;;15.70;34.50;;;;;;5149621;27;46961;-13
2022/03/04 11:32:29;;;;;;;5.80;4.95;;;15.80;34.50;;;;;;5150043;27;46907;-13
2022/03/04 11:34:56;;;;;;;5.53;4.93;;;15.90;34.40;;;;;;5149958;27;47039;-14
2022/03/04 11:37:23;;;;;;;5.22;4.57;;;15.90;34.20;;;;;;5149832;27;46926;-14
2022/03/04 11:40:33;;;;;;;5.00;4.50;;;16.00;34.20;;;;;;5148723;27;48782;-14
2022/03/04 11:42:55;;;;;;;5.75;4.68;;;16.00;34.10;;;;;;5148122;27;47052;-20
2022/03/04 11:45:31;;;;;;;5.25;4.60;;;16.10;34.00;;;;;;5148771;27;46967;-20
2022/03/04 11:48:02;;;;;;;6.43;5.05;;;16.20;34.00;;;;;;5145348;27;46928;-20
2022/03/04 11:50:31;;;;;;;7.13;4.75;;;16.20;33.80;;;;;;5148951;27;48747;-20
2022/03/04 11:53:14;;;;;;;7.38;5.00;;;16.30;33.80;;;;;;5148340;27;46739;-20
2022/03/04 11:55:57;;;;;;;5.60;4.75;;;16.40;33.70;;;;;;5148362;27;46889;-20
2022/03/04 11:58:24;;;;;;;5.57;4.95;;;16.40;33.70;;;;;;5148699;27;46898;-14
2022/03/04 12:00:51;;;;;;;5.60;4.93;;;16.50;33.60;;;;;;5149389;27;48858;-14
2022/03/04 12:03:18;;;;;;;5.53;4.70;;;16.50;33.50;;;;;;5149415;27;46836;-25
2022/03/04 12:06:00;;;;;;;5.35;4.60;;;16.60;33.40;;;;;;5150470;27;46873;-14
2022/03/04 12:08:37;;;;;;;5.32;4.72;;;16.60;33.30;;;;;;5149529;27;46906;-14
2022/03/04 12:11:05;;;;;;;5.82;4.65;;;16.70;33.20;;;;;;5148633;27;46922;-14
2022/03/04 12:13:31;;;;;;;5.53;4.90;;;16.70;33.10;;;;;;5148056;27;47204;-13
2022/03/04 12:16:01;;;;;;;6.03;4.80;;;16.80;33.20;;;;;;5149141;27;46742;-14
2022/03/04 12:18:30;;;;;;;5.15;4.18;;;16.80;33.10;;;;;;5145737;27;46829;-14
2022/03/04 12:21:06;;;;;;;5.20;4.28;;;16.90;32.70;;;;;;5146813;27;49769;-14
2022/03/04 12:23:36;;;;;;;5.03;4.53;;;16.90;32.70;;;;;;5147370;27;46937;-13
2022/03/04 12:26:12;;;;;;;5.53;4.65;;;17.00;32.90;;;;;;5148373;27;46986;-21
2022/03/04 12:28:44;;;;;;;4.90;4.03;;;17.00;32.70;;;;;;5148677;27;47121;-15
2022/03/04 12:31:15;;;;;;;6.47;5.18;;;17.10;32.40;;;;;;5148865;27;48326;-20
2022/03/04 12:33:44;;;;;;;5.25;4.75;;;17.10;32.60;;;;;;5147975;27;47147;-21
2022/03/04 12:36:12;;;;;;;5.18;4.32;;;17.10;32.50;;;;;;5146184;27;46990;-14
2022/03/04 12:38:40;;;;;;;7.57;4.88;;;17.20;32.60;;;;;;5145992;27;47261;-14
2022/03/04 12:41:14;;;;;;;5.25;4.70;;;17.20;32.50;;;;;;5146044;27;48065;-15
2022/03/04 12:43:42;;;;;;;5.65;4.70;;;17.30;32.40;;;;;;5145811;27;47030;-15
2022/03/04 12:46:09;;;;;;;5.00;4.47;;;17.30;33.00;;;;;;5146373;27;46824;-15
2022/03/04 12:48:36;;;;;;;5.43;4.53;;;17.40;32.40;;;;;;5145650;27;46997;-15
2022/03/04 12:51:18;;;;;;;6.60;4.03;;;17.40;32.40;;;;;;5148058;27;48829;-15